sensor_id;sensor_type;location;lat;lon;timestamp;pressure;altitude;pressure_sealevel;temperature;humidity
75740;BME280;64357;51.344;6.550;2023-03-01T00:01:30;102732.63;;;-0.43;72.40
75740;BME280;64357;51.344;6.550;2023-03-01T00:03:58;102728.66;;;-0.37;72.67
75740;BME280;64357;51.344;6.550;2023-03-01T00:06:24;102733.56;;;-0.43;72.26
75740;BME280;64357;51.344;6.550;2023-03-01T00:08:53;102727.63;;;-0.43;72.60
75740;BME280;64357;51.344;6.550;2023-03-01T00:13:45;102732.75;;;-0.47;72.31
75740;BME280;64357;51.344;6.550;2023-03-01T00:16:14;102729.06;;;-0.49;72.17
75740;BME280;64357;51.344;6.550;2023-03-01T00:18:42;102738.06;;;-0.56;72.64
75740;BME280;64357;51.344;6.550;2023-03-01T00:21:08;102727.63;;;-0.63;73.29
75740;BME280;64357;51.344;6.550;2023-03-01T00:23:34;102742.69;;;-0.63;73.52
75740;BME280;64357;51.344;6.550;2023-03-01T00:26:00;102732.38;;;-0.64;73.84
75740;BME280;64357;51.344;6.550;2023-03-01T00:28:25;102730.25;;;-0.67;73.37
75740;BME280;64357;51.344;6.550;2023-03-01T00:30:51;102720.75;;;-0.73;73.63
75740;BME280;64357;51.344;6.550;2023-03-01T00:33:17;102729.59;;;-0.75;74.31
75740;BME280;64357;51.344;6.550;2023-03-01T00:35:44;102723.66;;;-0.76;73.66
75740;BME280;64357;51.344;6.550;2023-03-01T00:38:12;102730.13;;;-0.72;74.25
75740;BME280;64357;51.344;6.550;2023-03-01T00:40:40;102725.09;;;-0.72;73.64
75740;BME280;64357;51.344;6.550;2023-03-01T00:43:05;102712.28;;;-0.74;73.79
75740;BME280;64357;51.344;6.550;2023-03-01T00:45:35;102714.00;;;-0.78;74.32
75740;BME280;64357;51.344;6.550;2023-03-01T00:48:00;102705.81;;;-0.77;74.16
75740;BME280;64357;51.344;6.550;2023-03-01T00:50:28;102697.09;;;-0.79;74.04
75740;BME280;64357;51.344;6.550;2023-03-01T00:52:55;102701.56;;;-0.83;73.94
75740;BME280;64357;51.344;6.550;2023-03-01T00:55:23;102693.41;;;-0.82;73.94
75740;BME280;64357;51.344;6.550;2023-03-01T00:57:49;102701.72;;;-0.77;73.95
75740;BME280;64357;51.344;6.550;2023-03-01T01:00:14;102697.34;;;-0.78;74.23
75740;BME280;64357;51.344;6.550;2023-03-01T01:02:40;102699.59;;;-0.79;73.84
75740;BME280;64357;51.344;6.550;2023-03-01T01:05:06;102695.50;;;-0.89;74.15
75740;BME280;64357;51.344;6.550;2023-03-01T01:07:32;102693.53;;;-0.86;74.13
75740;BME280;64357;51.344;6.550;2023-03-01T01:09:57;102696.69;;;-0.87;73.98
75740;BME280;64357;51.344;6.550;2023-03-01T01:12:23;102684.16;;;-0.87;74.15
75740;BME280;64357;51.344;6.550;2023-03-01T01:14:50;102688.09;;;-0.83;74.28
75740;BME280;64357;51.344;6.550;2023-03-01T01:17:16;102677.31;;;-0.88;74.83
75740;BME280;64357;51.344;6.550;2023-03-01T01:19:41;102672.28;;;-0.88;74.29
75740;BME280;64357;51.344;6.550;2023-03-01T01:22:09;102672.00;;;-0.89;74.31
75740;BME280;64357;51.344;6.550;2023-03-01T01:24:35;102658.25;;;-1.01;74.27
75740;BME280;64357;51.344;6.550;2023-03-01T01:27:01;102669.34;;;-0.95;74.73
75740;BME280;64357;51.344;6.550;2023-03-01T01:29:26;102664.63;;;-0.93;74.69
75740;BME280;64357;51.344;6.550;2023-03-01T01:31:52;102660.13;;;-0.90;74.97
75740;BME280;64357;51.344;6.550;2023-03-01T01:34:21;102658.03;;;-0.93;74.86
75740;BME280;64357;51.344;6.550;2023-03-01T01:36:53;102660.91;;;-0.95;74.58
75740;BME280;64357;51.344;6.550;2023-03-01T01:39:19;102662.91;;;-0.98;74.60
75740;BME280;64357;51.344;6.550;2023-03-01T01:41:45;102654.44;;;-0.99;75.07
75740;BME280;64357;51.344;6.550;2023-03-01T01:44:27;102650.47;;;-1.02;74.93
75740;BME280;64357;51.344;6.550;2023-03-01T01:49:33;102639.94;;;-1.05;75.12
75740;BME280;64357;51.344;6.550;2023-03-01T01:52:13;102642.44;;;-1.05;75.75
75740;BME280;64357;51.344;6.550;2023-03-01T01:55:05;102640.44;;;-1.02;75.15
75740;BME280;64357;51.344;6.550;2023-03-01T01:57:41;102635.97;;;-0.99;74.98
75740;BME280;64357;51.344;6.550;2023-03-01T02:00:14;102635.97;;;-0.99;75.61
75740;BME280;64357;51.344;6.550;2023-03-01T02:02:43;102623.00;;;-1.07;75.05
75740;BME280;64357;51.344;6.550;2023-03-01T02:05:15;102623.94;;;-1.06;74.84
75740;BME280;64357;51.344;6.550;2023-03-01T02:07:46;102630.28;;;-1.08;75.66
75740;BME280;64357;51.344;6.550;2023-03-01T02:10:15;102632.91;;;-1.12;75.97
75740;BME280;64357;51.344;6.550;2023-03-01T02:12:41;102627.50;;;-1.29;76.14
75740;BME280;64357;51.344;6.550;2023-03-01T02:15:07;102641.59;;;-1.29;75.87
75740;BME280;64357;51.344;6.550;2023-03-01T02:17:33;102638.16;;;-1.30;76.66
75740;BME280;64357;51.344;6.550;2023-03-01T02:20:14;102630.25;;;-1.27;75.91
75740;BME280;64357;51.344;6.550;2023-03-01T02:22:44;102636.34;;;-1.21;76.19
75740;BME280;64357;51.344;6.550;2023-03-01T02:30:30;102624.31;;;-1.28;75.43
75740;BME280;64357;51.344;6.550;2023-03-01T02:32:59;102619.69;;;-1.30;75.62
75740;BME280;64357;51.344;6.550;2023-03-01T02:35:35;102618.88;;;-1.35;76.00
75740;BME280;64357;51.344;6.550;2023-03-01T02:38:06;102633.44;;;-1.28;76.36
75740;BME280;64357;51.344;6.550;2023-03-01T02:40:36;102620.22;;;-1.27;75.96
75740;BME280;64357;51.344;6.550;2023-03-01T02:43:04;102614.81;;;-1.25;75.76
75740;BME280;64357;51.344;6.550;2023-03-01T02:45:31;102617.56;;;-1.23;75.87
75740;BME280;64357;51.344;6.550;2023-03-01T02:48:00;102610.06;;;-1.33;76.08
75740;BME280;64357;51.344;6.550;2023-03-01T02:53:11;102613.22;;;-1.44;76.95
75740;BME280;64357;51.344;6.550;2023-03-01T02:55:41;102624.31;;;-1.38;76.74
75740;BME280;64357;51.344;6.550;2023-03-01T02:58:07;102619.41;;;-1.42;76.04
75740;BME280;64357;51.344;6.550;2023-03-01T03:00:39;102620.91;;;-1.28;76.44
75740;BME280;64357;51.344;6.550;2023-03-01T03:03:09;102621.53;;;-1.29;75.79
75740;BME280;64357;51.344;6.550;2023-03-01T03:05:35;102632.22;;;-1.40;76.54
75740;BME280;64357;51.344;6.550;2023-03-01T03:08:02;102630.75;;;-1.44;76.94
75740;BME280;64357;51.344;6.550;2023-03-01T03:10:33;102635.25;;;-1.37;76.85
75740;BME280;64357;51.344;6.550;2023-03-01T03:13:02;102615.81;;;-1.48;76.39
75740;BME280;64357;51.344;6.550;2023-03-01T03:15:29;102630.34;;;-1.41;76.57
75740;BME280;64357;51.344;6.550;2023-03-01T03:17:57;102618.88;;;-1.35;76.62
75740;BME280;64357;51.344;6.550;2023-03-01T03:20:27;102619.53;;;-1.36;75.85
75740;BME280;64357;51.344;6.550;2023-03-01T03:22:55;102630.63;;;-1.40;76.06
75740;BME280;64357;51.344;6.550;2023-03-01T03:25:21;102624.03;;;-1.39;76.78
75740;BME280;64357;51.344;6.550;2023-03-01T03:27:49;102620.97;;;-1.42;76.32
75740;BME280;64357;51.344;6.550;2023-03-01T03:30:17;102610.66;;;-1.53;76.58
75740;BME280;64357;51.344;6.550;2023-03-01T03:32:46;102614.63;;;-1.59;76.92
75740;BME280;64357;51.344;6.550;2023-03-01T03:35:23;102610.66;;;-1.63;77.07
75740;BME280;64357;51.344;6.550;2023-03-01T03:37:51;102611.06;;;-1.56;76.99
75740;BME280;64357;51.344;6.550;2023-03-01T03:42:57;102606.31;;;-1.64;77.10
75740;BME280;64357;51.344;6.550;2023-03-01T03:45:25;102600.34;;;-1.65;77.72
75740;BME280;64357;51.344;6.550;2023-03-01T03:47:50;102608.13;;;-1.73;77.59
75740;BME280;64357;51.344;6.550;2023-03-01T03:50:17;102603.94;;;-1.68;77.23
75740;BME280;64357;51.344;6.550;2023-03-01T03:52:43;102604.03;;;-1.72;77.32
75740;BME280;64357;51.344;6.550;2023-03-01T03:55:17;102597.94;;;-1.78;77.56
75740;BME280;64357;51.344;6.550;2023-03-01T03:57:45;102596.22;;;-1.83;77.85
75740;BME280;64357;51.344;6.550;2023-03-01T04:00:18;102597.19;;;-1.73;77.43
75740;BME280;64357;51.344;6.550;2023-03-01T04:02:44;102599.56;;;-1.69;77.11
75740;BME280;64357;51.344;6.550;2023-03-01T04:05:11;102603.38;;;-1.71;77.03
75740;BME280;64357;51.344;6.550;2023-03-01T04:07:38;102589.50;;;-1.79;77.29
75740;BME280;64357;51.344;6.550;2023-03-01T04:10:05;102583.94;;;-1.82;77.45
75740;BME280;64357;51.344;6.550;2023-03-01T04:12:32;102584.09;;;-1.86;77.49
75740;BME280;64357;51.344;6.550;2023-03-01T04:14:59;102574.44;;;-1.89;77.60
75740;BME280;64357;51.344;6.550;2023-03-01T04:17:24;102577.88;;;-1.88;77.62
75740;BME280;64357;51.344;6.550;2023-03-01T04:19:50;102564.84;;;-1.91;78.06
75740;BME280;64357;51.344;6.550;2023-03-01T04:22:15;102576.03;;;-1.89;78.14
75740;BME280;64357;51.344;6.550;2023-03-01T04:24:46;102572.44;;;-1.95;78.38
75740;BME280;64357;51.344;6.550;2023-03-01T04:27:14;102564.56;;;-1.93;78.52
75740;BME280;64357;51.344;6.550;2023-03-01T04:29:39;102568.38;;;-1.95;77.95
75740;BME280;64357;51.344;6.550;2023-03-01T04:32:04;102554.66;;;-1.97;78.43
75740;BME280;64357;51.344;6.550;2023-03-01T04:34:30;102569.94;;;-1.95;78.00
75740;BME280;64357;51.344;6.550;2023-03-01T04:36:55;102564.28;;;-1.94;78.35
75740;BME280;64357;51.344;6.550;2023-03-01T04:39:21;102567.44;;;-1.95;78.64
75740;BME280;64357;51.344;6.550;2023-03-01T04:41:47;102562.69;;;-2.03;78.59
75740;BME280;64357;51.344;6.550;2023-03-01T04:44:15;102560.44;;;-2.02;78.19
75740;BME280;64357;51.344;6.550;2023-03-01T04:46:42;102570.03;;;-2.09;78.35
75740;BME280;64357;51.344;6.550;2023-03-01T04:49:08;102573.41;;;-2.18;79.37
75740;BME280;64357;51.344;6.550;2023-03-01T04:51:33;102579.34;;;-2.18;79.10
75740;BME280;64357;51.344;6.550;2023-03-01T04:53:58;102577.75;;;-2.17;78.72
75740;BME280;64357;51.344;6.550;2023-03-01T04:56:25;102575.41;;;-2.21;79.31
75740;BME280;64357;51.344;6.550;2023-03-01T04:58:53;102574.06;;;-2.19;79.40
75740;BME280;64357;51.344;6.550;2023-03-01T05:01:19;102574.63;;;-2.16;79.08
75740;BME280;64357;51.344;6.550;2023-03-01T05:03:50;102571.47;;;-2.15;78.66
75740;BME280;64357;51.344;6.550;2023-03-01T05:06:17;102555.38;;;-2.21;78.77
75740;BME280;64357;51.344;6.550;2023-03-01T05:08:48;102566.19;;;-2.17;79.12
75740;BME280;64357;51.344;6.550;2023-03-01T05:11:13;102560.25;;;-2.17;79.41
75740;BME280;64357;51.344;6.550;2023-03-01T05:13:42;102560.25;;;-2.17;79.30
75740;BME280;64357;51.344;6.550;2023-03-01T05:16:10;102553.38;;;-2.18;79.17
75740;BME280;64357;51.344;6.550;2023-03-01T05:18:36;102555.22;;;-2.17;79.42
75740;BME280;64357;51.344;6.550;2023-03-01T05:21:06;102556.72;;;-2.13;78.80
75740;BME280;64357;51.344;6.550;2023-03-01T05:23:34;102549.31;;;-2.18;78.81
75740;BME280;64357;51.344;6.550;2023-03-01T05:26:03;102552.09;;;-2.16;78.97
75740;BME280;64357;51.344;6.550;2023-03-01T05:28:30;102550.53;;;-2.16;78.64
75740;BME280;64357;51.344;6.550;2023-03-01T05:30:56;102547.88;;;-2.21;79.25
75740;BME280;64357;51.344;6.550;2023-03-01T05:33:25;102554.81;;;-2.24;79.33
75740;BME280;64357;51.344;6.550;2023-03-01T05:35:51;102545.41;;;-2.35;80.05
75740;BME280;64357;51.344;6.550;2023-03-01T05:38:18;102538.84;;;-2.34;79.66
75740;BME280;64357;51.344;6.550;2023-03-01T05:40:45;102535.63;;;-2.43;80.13
75740;BME280;64357;51.344;6.550;2023-03-01T05:43:12;102534.88;;;-2.38;80.17
75740;BME280;64357;51.344;6.550;2023-03-01T05:45:38;102534.13;;;-2.33;79.97
75740;BME280;64357;51.344;6.550;2023-03-01T05:48:04;102535.28;;;-2.31;79.70
75740;BME280;64357;51.344;6.550;2023-03-01T05:50:33;102540.84;;;-2.28;79.01
75740;BME280;64357;51.344;6.550;2023-03-01T05:53:06;102540.56;;;-2.29;79.62
75740;BME280;64357;51.344;6.550;2023-03-01T05:55:33;102537.28;;;-2.34;79.21
75740;BME280;64357;51.344;6.550;2023-03-01T05:58:03;102535.41;;;-2.35;79.79
75740;BME280;64357;51.344;6.550;2023-03-01T06:00:29;102538.19;;;-2.33;79.54
75740;BME280;64357;51.344;6.550;2023-03-01T06:03:04;102539.13;;;-2.33;79.56
75740;BME280;64357;51.344;6.550;2023-03-01T06:05:30;102546.63;;;-2.33;79.72
75740;BME280;64357;51.344;6.550;2023-03-01T06:07:58;102540.53;;;-2.39;79.42
75740;BME280;64357;51.344;6.550;2023-03-01T06:10:24;102535.69;;;-2.33;79.44
75740;BME280;64357;51.344;6.550;2023-03-01T06:12:49;102548.47;;;-2.32;79.67
75740;BME280;64357;51.344;6.550;2023-03-01T06:15:17;102538.19;;;-2.33;79.55
75740;BME280;64357;51.344;6.550;2023-03-01T06:17:46;102541.88;;;-2.31;79.08
75740;BME280;64357;51.344;6.550;2023-03-01T06:20:16;102542.66;;;-2.36;79.54
75740;BME280;64357;51.344;6.550;2023-03-01T06:22:45;102546.72;;;-2.37;79.67
75740;BME280;64357;51.344;6.550;2023-03-01T06:25:13;102539.88;;;-2.38;79.99
75740;BME280;64357;51.344;6.550;2023-03-01T06:27:39;102534.63;;;-2.39;79.79
75740;BME280;64357;51.344;6.550;2023-03-01T06:30:05;102527.88;;;-2.45;79.49
75740;BME280;64357;51.344;6.550;2023-03-01T06:32:32;102529.22;;;-2.37;79.56
75740;BME280;64357;51.344;6.550;2023-03-01T06:34:57;102523.94;;;-2.38;79.55
75740;BME280;64357;51.344;6.550;2023-03-01T06:37:24;102530.03;;;-2.32;79.68
75740;BME280;64357;51.344;6.550;2023-03-01T06:39:49;102526.59;;;-2.33;79.68
75740;BME280;64357;51.344;6.550;2023-03-01T06:42:14;102529.41;;;-2.22;78.83
75740;BME280;64357;51.344;6.550;2023-03-01T06:44:43;102528.22;;;-2.24;79.39
75740;BME280;64357;51.344;6.550;2023-03-01T06:47:09;102526.63;;;-2.23;79.64
75740;BME280;64357;51.344;6.550;2023-03-01T06:49:34;102529.69;;;-2.20;79.68
75740;BME280;64357;51.344;6.550;2023-03-01T06:52:02;102531.69;;;-2.13;79.02
75740;BME280;64357;51.344;6.550;2023-03-01T06:54:28;102523.91;;;-2.15;78.79
75740;BME280;64357;51.344;6.550;2023-03-01T06:56:53;102533.81;;;-2.11;78.52
75740;BME280;64357;51.344;6.550;2023-03-01T06:59:19;102539.22;;;-2.04;79.06
75740;BME280;64357;51.344;6.550;2023-03-01T07:01:44;102528.16;;;-2.00;78.21
75740;BME280;64357;51.344;6.550;2023-03-01T07:04:10;102535.56;;;-1.96;78.37
75740;BME280;64357;51.344;6.550;2023-03-01T07:06:36;102536.22;;;-1.97;78.33
75740;BME280;64357;51.344;6.550;2023-03-01T07:09:01;102530.28;;;-1.88;78.08
75740;BME280;64357;51.344;6.550;2023-03-01T07:11:29;102522.50;;;-1.90;77.74
75740;BME280;64357;51.344;6.550;2023-03-01T07:13:55;102542.69;;;-1.84;78.51
75740;BME280;64357;51.344;6.550;2023-03-01T07:16:21;102531.78;;;-1.75;78.45
75740;BME280;64357;51.344;6.550;2023-03-01T07:18:48;102539.31;;;-1.75;77.68
75740;BME280;64357;51.344;6.550;2023-03-01T07:21:16;102534.97;;;-1.66;77.50
75740;BME280;64357;51.344;6.550;2023-03-01T07:23:43;102534.72;;;-1.58;77.51
75740;BME280;64357;51.344;6.550;2023-03-01T07:26:12;102535.25;;;-1.55;76.92
75740;BME280;64357;51.344;6.550;2023-03-01T07:28:37;102529.19;;;-1.51;76.75
75740;BME280;64357;51.344;6.550;2023-03-01T07:31:05;102527.59;;;-1.41;76.95
75740;BME280;64357;51.344;6.550;2023-03-01T07:33:31;102529.72;;;-1.39;77.08
75740;BME280;64357;51.344;6.550;2023-03-01T07:36:01;102526.00;;;-1.31;76.56
75740;BME280;64357;51.344;6.550;2023-03-01T07:38:28;102518.25;;;-1.23;75.85
75740;BME280;64357;51.344;6.550;2023-03-01T07:40:58;102527.59;;;-1.12;75.17
75740;BME280;64357;51.344;6.550;2023-03-01T07:43:27;102520.06;;;-1.02;75.30
75740;BME280;64357;51.344;6.550;2023-03-01T07:45:52;102515.44;;;-0.95;74.85
75740;BME280;64357;51.344;6.550;2023-03-01T07:48:17;102517.81;;;-0.91;74.84
75740;BME280;64357;51.344;6.550;2023-03-01T07:50:45;102507.78;;;-0.91;74.33
75740;BME280;64357;51.344;6.550;2023-03-01T07:53:11;102517.38;;;-0.79;74.23
75740;BME280;64357;51.344;6.550;2023-03-01T07:55:39;102511.44;;;-0.70;73.46
75740;BME280;64357;51.344;6.550;2023-03-01T07:58:05;102520.50;;;-0.61;73.29
75740;BME280;64357;51.344;6.550;2023-03-01T08:00:32;102503.06;;;-0.55;71.86
75740;BME280;64357;51.344;6.550;2023-03-01T08:03:03;102507.38;;;-0.44;72.30
75740;BME280;64357;51.344;6.550;2023-03-01T08:05:29;102518.56;;;-0.33;72.03
75740;BME280;64357;51.344;6.550;2023-03-01T08:07:57;102522.34;;;-0.25;70.83
75740;BME280;64357;51.344;6.550;2023-03-01T08:10:22;102515.03;;;-0.14;71.11
75740;BME280;64357;51.344;6.550;2023-03-01T08:12:47;102522.44;;;-0.10;70.29
75740;BME280;64357;51.344;6.550;2023-03-01T08:15:15;102528.81;;;0.04;70.34
75740;BME280;64357;51.344;6.550;2023-03-01T08:17:43;102521.72;;;0.01;69.54
75740;BME280;64357;51.344;6.550;2023-03-01T08:20:11;102519.03;;;0.05;69.71
75740;BME280;64357;51.344;6.550;2023-03-01T08:22:37;102515.53;;;0.14;69.41
75740;BME280;64357;51.344;6.550;2023-03-01T08:25:03;102511.19;;;0.29;69.77
75740;BME280;64357;51.344;6.550;2023-03-01T08:27:29;102509.31;;;0.37;68.97
75740;BME280;64357;51.344;6.550;2023-03-01T08:29:54;102511.91;;;0.43;67.65
75740;BME280;64357;51.344;6.550;2023-03-01T08:32:19;102512.19;;;0.60;68.45
75740;BME280;64357;51.344;6.550;2023-03-01T08:34:46;102501.78;;;0.68;66.89
75740;BME280;64357;51.344;6.550;2023-03-01T08:37:12;102503.31;;;0.77;67.09
75740;BME280;64357;51.344;6.550;2023-03-01T08:39:39;102497.78;;;0.89;66.23
75740;BME280;64357;51.344;6.550;2023-03-01T08:42:07;102500.09;;;0.93;66.57
75740;BME280;64357;51.344;6.550;2023-03-01T08:44:35;102504.56;;;1.00;65.87
75740;BME280;64357;51.344;6.550;2023-03-01T08:47:00;102498.72;;;1.11;64.58
75740;BME280;64357;51.344;6.550;2023-03-01T08:49:27;102500.53;;;1.27;65.14
75740;BME280;64357;51.344;6.550;2023-03-01T08:51:52;102501.13;;;1.36;64.36
75740;BME280;64357;51.344;6.550;2023-03-01T08:54:20;102494.50;;;1.36;63.73
75740;BME280;64357;51.344;6.550;2023-03-01T08:56:46;102494.13;;;1.44;62.91
75740;BME280;64357;51.344;6.550;2023-03-01T08:59:12;102495.03;;;1.45;63.29
75740;BME280;64357;51.344;6.550;2023-03-01T09:01:38;102486.47;;;1.54;63.00
75740;BME280;64357;51.344;6.550;2023-03-01T09:04:05;102487.81;;;1.73;62.77
75740;BME280;64357;51.344;6.550;2023-03-01T09:06:33;102491.41;;;1.69;62.46
75740;BME280;64357;51.344;6.550;2023-03-01T09:08:59;102489.88;;;1.75;62.65
75740;BME280;64357;51.344;6.550;2023-03-01T09:11:25;102494.50;;;1.78;61.78
75740;BME280;64357;51.344;6.550;2023-03-01T09:13:53;102478.09;;;1.85;62.03
75740;BME280;64357;51.344;6.550;2023-03-01T09:16:20;102474.94;;;1.92;62.33
75740;BME280;64357;51.344;6.550;2023-03-01T09:18:49;102477.75;;;1.99;61.28
75740;BME280;64357;51.344;6.550;2023-03-01T09:21:18;102475.00;;;1.98;61.11
75740;BME280;64357;51.344;6.550;2023-03-01T09:23:47;102473.31;;;2.13;60.93
75740;BME280;64357;51.344;6.550;2023-03-01T09:26:18;102472.44;;;2.19;60.50
75740;BME280;64357;51.344;6.550;2023-03-01T09:28:44;102474.09;;;2.24;59.93
75740;BME280;64357;51.344;6.550;2023-03-01T09:31:11;102471.66;;;2.35;60.19
75740;BME280;64357;51.344;6.550;2023-03-01T09:33:41;102470.16;;;2.47;59.88
75740;BME280;64357;51.344;6.550;2023-03-01T09:36:10;102466.34;;;2.60;59.00
75740;BME280;64357;51.344;6.550;2023-03-01T09:38:36;102460.44;;;2.71;58.60
75740;BME280;64357;51.344;6.550;2023-03-01T09:43:52;102460.19;;;2.69;57.19
75740;BME280;64357;51.344;6.550;2023-03-01T09:46:25;102449.72;;;2.83;57.56
75740;BME280;64357;51.344;6.550;2023-03-01T09:48:56;102449.25;;;2.80;56.78
75740;BME280;64357;51.344;6.550;2023-03-01T09:51:27;102451.09;;;2.86;57.06
75740;BME280;64357;51.344;6.550;2023-03-01T09:53:54;102444.81;;;3.05;56.90
75740;BME280;64357;51.344;6.550;2023-03-01T09:56:29;102437.88;;;3.04;56.22
75740;BME280;64357;51.344;6.550;2023-03-01T10:04:45;102442.59;;;3.29;55.34
75740;BME280;64357;51.344;6.550;2023-03-01T10:07:39;102441.88;;;3.25;54.46
75740;BME280;64357;51.344;6.550;2023-03-01T10:10:18;102423.53;;;3.31;54.01
75740;BME280;64357;51.344;6.550;2023-03-01T10:12:51;102421.28;;;3.44;54.23
75740;BME280;64357;51.344;6.550;2023-03-01T10:15:28;102428.63;;;3.42;54.29
75740;BME280;64357;51.344;6.550;2023-03-01T10:18:01;102422.38;;;3.24;53.95
75740;BME280;64357;51.344;6.550;2023-03-01T10:20:51;102415.94;;;3.26;54.08
75740;BME280;64357;51.344;6.550;2023-03-01T10:23:17;102402.16;;;3.18;54.59
75740;BME280;64357;51.344;6.550;2023-03-01T10:28:49;102406.13;;;3.55;53.00
75740;BME280;64357;51.344;6.550;2023-03-01T10:31:36;102392.81;;;3.51;52.87
75740;BME280;64357;51.344;6.550;2023-03-01T10:36:53;102390.53;;;3.80;52.04
75740;BME280;64357;51.344;6.550;2023-03-01T10:39:23;102395.38;;;3.84;51.02
75740;BME280;64357;51.344;6.550;2023-03-01T10:42:01;102402.25;;;3.91;51.14
75740;BME280;64357;51.344;6.550;2023-03-01T10:44:41;102395.81;;;3.98;51.82
75740;BME280;64357;51.344;6.550;2023-03-01T10:47:16;102400.44;;;4.18;50.78
75740;BME280;64357;51.344;6.550;2023-03-01T10:49:59;102379.50;;;4.02;50.69
75740;BME280;64357;51.344;6.550;2023-03-01T10:52:31;102379.00;;;4.27;50.43
75740;BME280;64357;51.344;6.550;2023-03-01T10:55:04;102384.00;;;4.66;49.21
75740;BME280;64357;51.344;6.550;2023-03-01T10:57:45;102381.00;;;5.15;48.18
75740;BME280;64357;51.344;6.550;2023-03-01T11:00:20;102375.84;;;5.67;46.42
75740;BME280;64357;51.344;6.550;2023-03-01T11:02:51;102373.44;;;6.57;44.57
75740;BME280;64357;51.344;6.550;2023-03-01T11:05:27;102355.19;;;6.78;42.51
75740;BME280;64357;51.344;6.550;2023-03-01T11:07:59;102349.19;;;6.96;42.06
75740;BME280;64357;51.344;6.550;2023-03-01T11:10:27;102345.31;;;7.55;41.08
75740;BME280;64357;51.344;6.550;2023-03-01T11:12:53;102340.22;;;8.11;39.61
75740;BME280;64357;51.344;6.550;2023-03-01T11:15:26;102343.34;;;7.90;39.92
75740;BME280;64357;51.344;6.550;2023-03-01T11:17:55;102330.72;;;8.61;38.13
75740;BME280;64357;51.344;6.550;2023-03-01T11:20:25;102339.19;;;8.29;38.45
75740;BME280;64357;51.344;6.550;2023-03-01T11:22:54;102335.75;;;8.41;38.02
75740;BME280;64357;51.344;6.550;2023-03-01T11:25:34;102339.44;;;8.76;37.48
75740;BME280;64357;51.344;6.550;2023-03-01T11:28:02;102310.84;;;8.59;37.76
75740;BME280;64357;51.344;6.550;2023-03-01T11:35:55;102325.91;;;8.70;37.08
75740;BME280;64357;51.344;6.550;2023-03-01T11:38:27;102306.59;;;8.85;36.25
75740;BME280;64357;51.344;6.550;2023-03-01T11:43:49;102288.72;;;9.17;36.03
75740;BME280;64357;51.344;6.550;2023-03-01T11:51:49;102315.88;;;9.64;34.10
75740;BME280;64357;51.344;6.550;2023-03-01T11:54:30;102316.47;;;8.89;35.19
75740;BME280;64357;51.344;6.550;2023-03-01T12:05:23;102314.19;;;9.57;34.04
75740;BME280;64357;51.344;6.550;2023-03-01T12:08:26;102319.34;;;9.64;33.59
75740;BME280;64357;51.344;6.550;2023-03-01T12:30:25;102269.41;;;10.83;32.92
75740;BME280;64357;51.344;6.550;2023-03-01T12:35:52;102264.53;;;10.91;32.46
75740;BME280;64357;51.344;6.550;2023-03-01T12:38:48;102257.41;;;11.03;32.36
75740;BME280;64357;51.344;6.550;2023-03-01T12:47:03;102259.94;;;9.92;33.37
75740;BME280;64357;51.344;6.550;2023-03-01T12:49:36;102262.91;;;9.68;33.58
75740;BME280;64357;51.344;6.550;2023-03-01T12:54:44;102245.09;;;9.28;33.54
75740;BME280;64357;51.344;6.550;2023-03-01T12:57:26;102251.72;;;9.33;33.76
75740;BME280;64357;51.344;6.550;2023-03-01T13:00:17;102250.88;;;9.47;33.88
75740;BME280;64357;51.344;6.550;2023-03-01T13:02:58;102237.97;;;9.46;34.38
75740;BME280;64357;51.344;6.550;2023-03-01T13:08:08;102241.69;;;9.35;34.35
75740;BME280;64357;51.344;6.550;2023-03-01T13:10:56;102236.53;;;9.08;35.11
75740;BME280;64357;51.344;6.550;2023-03-01T13:13:25;102234.28;;;9.44;34.57
75740;BME280;64357;51.344;6.550;2023-03-01T13:15:52;102229.69;;;9.14;35.00
75740;BME280;64357;51.344;6.550;2023-03-01T13:20:52;102226.63;;;9.17;35.44
75740;BME280;64357;51.344;6.550;2023-03-01T13:28:45;102225.78;;;8.84;36.54
75740;BME280;64357;51.344;6.550;2023-03-01T13:36:47;102204.84;;;8.66;37.18
75740;BME280;64357;51.344;6.550;2023-03-01T13:41:51;102193.72;;;8.13;38.66
75740;BME280;64357;51.344;6.550;2023-03-01T13:46:58;102187.16;;;8.28;38.64
75740;BME280;64357;51.344;6.550;2023-03-01T13:49:36;102185.22;;;8.33;39.70
75740;BME280;64357;51.344;6.550;2023-03-01T13:55:18;102160.19;;;7.27;38.39
75740;BME280;64357;51.344;6.550;2023-03-01T13:57:49;102176.88;;;7.25;40.03
75740;BME280;64357;51.344;6.550;2023-03-01T14:00:35;102170.47;;;7.08;39.49
75740;BME280;64357;51.344;6.550;2023-03-01T14:03:14;102171.16;;;7.07;40.57
75740;BME280;64357;51.344;6.550;2023-03-01T14:05:41;102171.59;;;7.23;40.10
75740;BME280;64357;51.344;6.550;2023-03-01T14:08:25;102163.56;;;7.20;40.16
75740;BME280;64357;51.344;6.550;2023-03-01T14:16:16;102158.47;;;7.20;40.04
75740;BME280;64357;51.344;6.550;2023-03-01T14:19:04;102146.56;;;7.01;39.87
75740;BME280;64357;51.344;6.550;2023-03-01T14:21:31;102148.91;;;6.86;39.83
75740;BME280;64357;51.344;6.550;2023-03-01T14:23:57;102147.66;;;6.77;39.76
75740;BME280;64357;51.344;6.550;2023-03-01T14:26:23;102142.09;;;6.92;40.79
75740;BME280;64357;51.344;6.550;2023-03-01T14:28:51;102134.75;;;6.76;40.23
75740;BME280;64357;51.344;6.550;2023-03-01T14:31:43;102140.13;;;6.84;39.49
75740;BME280;64357;51.344;6.550;2023-03-01T14:34:19;102140.84;;;6.83;39.53
75740;BME280;64357;51.344;6.550;2023-03-01T14:36:45;102140.03;;;6.90;39.25
75740;BME280;64357;51.344;6.550;2023-03-01T14:39:17;102133.03;;;6.82;40.15
75740;BME280;64357;51.344;6.550;2023-03-01T14:41:43;102134.84;;;6.70;39.82
75740;BME280;64357;51.344;6.550;2023-03-01T14:44:16;102126.59;;;6.65;40.81
75740;BME280;64357;51.344;6.550;2023-03-01T14:46:44;102120.00;;;6.73;40.08
75740;BME280;64357;51.344;6.550;2023-03-01T14:49:20;102124.28;;;6.80;39.47
75740;BME280;64357;51.344;6.550;2023-03-01T14:52:03;102128.59;;;6.86;40.24
75740;BME280;64357;51.344;6.550;2023-03-01T14:54:41;102126.97;;;6.87;40.89
75740;BME280;64357;51.344;6.550;2023-03-01T14:57:26;102121.34;;;6.89;40.73